Time;durP1;ratioP1;P1;durP2;ratioP2;P2;SDS_P1;SDS_P2;PMS_P1;PMS_P2;Temp;Humidity;BMP_temperature;BMP_pressure;BME280_temperature;BME280_humidity;BME280_pressure;Samples;Min_cycle;Max_cycle;Signal;HPM_P1;HPM_P2
2021/12/01 00:00:56;;;;;;;6.80;5.85;;;4.20;99.90;;;;;;5076929;28;20212;-70
2021/12/01 00:03:23;;;;;;;6.60;5.97;;;4.20;99.90;;;;;;5076944;28;20214;-70
2021/12/01 00:05:49;;;;;;;7.20;6.60;;;4.10;99.90;;;;;;5076956;28;20620;-70
2021/12/01 00:08:16;;;;;;;7.85;7.10;;;4.10;99.90;;;;;;5077413;28;20219;-70
2021/12/01 00:10:43;;;;;;;8.20;7.35;;;4.10;99.90;;;;;;5077398;28;20200;-70
2021/12/01 00:13:13;;;;;;;7.95;7.15;;;4.10;99.90;;;;;;5060222;28;20195;-71
2021/12/01 00:15:41;;;;;;;8.65;7.95;;;4.10;99.90;;;;;;5076280;28;20200;-70
2021/12/01 00:18:08;;;;;;;7.60;6.90;;;4.10;99.90;;;;;;5077038;28;20208;-70
2021/12/01 00:20:34;;;;;;;8.65;7.60;;;4.10;99.90;;;;;;5076055;28;20207;-69
2021/12/01 00:23:02;;;;;;;8.95;7.30;;;4.10;99.90;;;;;;5077175;28;20211;-69
2021/12/01 00:25:29;;;;;;;9.65;8.45;;;4.10;99.90;;;;;;5075877;28;20216;-69
2021/12/01 00:27:56;;;;;;;9.50;8.60;;;4.10;99.90;;;;;;5075743;28;20203;-69
2021/12/01 00:30:24;;;;;;;11.27;9.30;;;4.00;99.90;;;;;;5076757;28;20192;-69
2021/12/01 00:32:53;;;;;;;10.07;9.07;;;4.00;99.90;;;;;;5077543;28;20246;-69
2021/12/01 00:35:20;;;;;;;10.93;8.95;;;4.00;99.90;;;;;;5076899;28;20591;-69
2021/12/01 00:37:47;;;;;;;9.55;8.55;;;4.00;99.90;;;;;;5077477;28;20550;-69
2021/12/01 00:40:14;;;;;;;13.05;10.13;;;4.00;99.90;;;;;;5075984;28;20215;-71
2021/12/01 00:42:41;;;;;;;10.00;9.02;;;4.00;99.90;;;;;;5076473;28;20199;-70
2021/12/01 00:45:17;;;;;;;13.32;9.35;;;4.00;99.90;;;;;;5076825;28;20195;-69
2021/12/01 00:47:47;;;;;;;10.45;9.13;;;4.00;99.90;;;;;;5076788;28;20225;-69
2021/12/01 00:50:35;;;;;;;10.50;8.80;;;4.00;99.90;;;;;;5075684;28;20227;-70
2021/12/01 00:53:05;;;;;;;10.02;8.13;;;4.00;99.90;;;;;;5075822;28;20196;-70
2021/12/01 00:55:32;;;;;;;9.32;8.40;;;4.00;99.90;;;;;;5077250;28;20679;-70
2021/12/01 00:57:59;;;;;;;9.18;8.27;;;4.00;99.90;;;;;;5077476;28;20595;-70
2021/12/01 01:00:28;;;;;;;10.13;8.18;;;4.10;99.90;;;;;;5077208;28;20203;-70
2021/12/01 01:02:58;;;;;;;8.65;7.95;;;4.10;99.90;;;;;;5076547;28;20199;-70
2021/12/01 01:05:26;;;;;;;8.50;7.70;;;4.10;99.90;;;;;;5075122;28;20188;-69
2021/12/01 01:07:53;;;;;;;9.63;7.53;;;4.10;99.90;;;;;;5075637;28;20208;-69
2021/12/01 01:10:34;;;;;;;7.10;6.50;;;4.10;99.90;;;;;;5075408;28;20200;-71
2021/12/01 01:18:37;;;;;;;6.05;5.45;;;4.20;99.90;;;;;;5075255;28;20559;-69
2021/12/01 01:21:05;;;;;;;5.80;5.30;;;4.30;99.90;;;;;;5074840;28;20226;-69
2021/12/01 01:23:33;;;;;;;6.20;5.10;;;4.30;99.90;;;;;;5074283;28;20548;-69
2021/12/01 01:26:01;;;;;;;6.90;4.80;;;4.40;99.90;;;;;;5075043;28;20224;-69
2021/12/01 01:28:27;;;;;;;4.18;3.88;;;4.40;99.90;;;;;;5075354;28;20283;-70
2021/12/01 01:30:54;;;;;;;6.75;4.65;;;4.40;99.90;;;;;;5075281;28;20211;-71
2021/12/01 01:33:22;;;;;;;4.70;4.40;;;4.40;99.90;;;;;;5073939;28;20204;-70
2021/12/01 01:35:49;;;;;;;6.07;5.55;;;4.40;99.90;;;;;;5074343;28;20608;-70
2021/12/01 01:38:16;;;;;;;4.50;4.10;;;4.40;99.90;;;;;;5075783;28;20204;-71
2021/12/01 01:40:42;;;;;;;4.55;4.20;;;4.40;99.90;;;;;;5075518;28;20208;-70
2021/12/01 01:43:10;;;;;;;4.38;3.83;;;4.40;99.90;;;;;;5075197;28;20207;-68
2021/12/01 01:45:36;;;;;;;5.15;4.47;;;4.40;99.90;;;;;;5074560;28;20230;-69
2021/12/01 01:48:08;;;;;;;5.57;4.85;;;4.40;99.90;;;;;;5074284;28;20391;-69
2021/12/01 01:50:39;;;;;;;4.63;4.28;;;4.50;99.90;;;;;;5074254;28;20710;-70
2021/12/01 01:53:22;;;;;;;3.67;3.45;;;4.50;99.90;;;;;;5074779;28;20223;-70
2021/12/01 01:55:51;;;;;;;4.30;4.00;;;4.50;99.90;;;;;;5075726;28;20218;-69
2021/12/01 01:58:21;;;;;;;7.45;4.57;;;4.50;99.90;;;;;;5076175;28;20239;-70
2021/12/01 02:01:07;;;;;;;5.22;4.35;;;4.40;99.90;;;;;;5076813;28;20200;-70
2021/12/01 02:03:43;;;;;;;5.43;5.03;;;4.40;99.90;;;;;;5074312;28;20195;-70
2021/12/01 02:06:11;;;;;;;8.75;5.20;;;4.40;99.90;;;;;;5075126;28;20234;-70
2021/12/01 02:08:40;;;;;;;6.97;5.22;;;4.40;99.90;;;;;;5075349;28;20196;-69
2021/12/01 02:11:12;;;;;;;5.32;4.93;;;4.50;99.90;;;;;;5075942;28;20573;-70
2021/12/01 02:13:41;;;;;;;7.60;5.70;;;4.50;99.90;;;;;;5075368;28;20189;-69
2021/12/01 02:16:08;;;;;;;5.07;4.50;;;4.50;99.90;;;;;;5074928;28;20286;-70
2021/12/01 02:18:35;;;;;;;5.10;4.70;;;4.50;99.90;;;;;;5074832;28;20260;-70
2021/12/01 02:21:01;;;;;;;7.78;5.88;;;4.50;99.90;;;;;;5073501;28;20214;-70
2021/12/01 02:23:28;;;;;;;7.47;5.93;;;4.50;99.90;;;;;;5074859;28;20200;-70
2021/12/01 02:25:55;;;;;;;5.65;5.15;;;4.50;99.90;;;;;;5074066;28;20219;-69
2021/12/01 02:28:22;;;;;;;6.88;5.25;;;4.50;99.90;;;;;;5073045;28;20203;-71
2021/12/01 02:30:48;;;;;;;5.97;5.03;;;4.50;99.90;;;;;;5074144;28;20667;-68
2021/12/01 02:33:15;;;;;;;5.25;4.50;;;4.50;99.90;;;;;;5073861;28;20203;-68
2021/12/01 02:35:41;;;;;;;4.68;4.38;;;4.50;99.90;;;;;;5072243;28;20200;-68
2021/12/01 02:38:08;;;;;;;4.32;3.92;;;4.50;99.90;;;;;;5073402;28;20207;-68
2021/12/01 02:40:35;;;;;;;4.90;4.25;;;4.60;99.90;;;;;;5072283;28;20207;-68
2021/12/01 02:43:01;;;;;;;6.05;3.80;;;4.70;99.90;;;;;;5074560;28;20191;-68
2021/12/01 02:45:28;;;;;;;4.25;3.80;;;4.70;99.90;;;;;;5076204;28;20627;-69
2021/12/01 02:47:54;;;;;;;3.95;3.55;;;4.80;99.90;;;;;;5077159;28;20707;-68
2021/12/01 02:50:21;;;;;;;3.70;3.40;;;4.80;99.90;;;;;;5077356;28;20584;-68
2021/12/01 02:52:47;;;;;;;3.72;3.25;;;4.80;99.90;;;;;;5077409;28;20207;-68
2021/12/01 02:55:19;;;;;;;3.60;3.25;;;4.80;99.90;;;;;;5075929;28;20200;-68
2021/12/01 02:57:47;;;;;;;4.15;3.75;;;4.80;99.90;;;;;;5077480;28;20532;-68
2021/12/01 03:00:15;;;;;;;3.20;2.90;;;4.90;99.90;;;;;;5077061;28;20215;-68
2021/12/01 03:02:43;;;;;;;4.40;3.45;;;4.90;99.90;;;;;;5077544;28;20200;-67
2021/12/01 03:05:10;;;;;;;4.95;2.97;;;4.90;99.90;;;;;;5077331;28;20226;-67
2021/12/01 03:07:38;;;;;;;3.33;2.97;;;4.90;99.90;;;;;;5077269;28;20281;-68
2021/12/01 03:10:05;;;;;;;5.30;4.40;;;4.90;99.90;;;;;;5075611;28;20196;-67
2021/12/01 03:12:35;;;;;;;11.65;7.43;;;4.90;99.90;;;;;;5076754;28;20196;-67
2021/12/01 03:15:02;;;;;;;9.02;8.15;;;4.90;99.90;;;;;;5077029;28;20200;-68
2021/12/01 03:17:30;;;;;;;11.82;10.57;;;4.90;99.90;;;;;;5077464;28;20253;-69
2021/12/01 03:19:57;;;;;;;3.92;3.63;;;4.90;99.90;;;;;;5077822;28;20678;-68
2021/12/01 03:22:25;;;;;;;5.22;3.22;;;5.00;99.90;;;;;;5078578;28;20219;-68
2021/12/01 03:24:52;;;;;;;4.22;3.33;;;5.00;99.90;;;;;;5077681;28;20664;-68
2021/12/01 03:27:19;;;;;;;3.45;3.15;;;5.00;99.90;;;;;;5077230;28;20223;-68
2021/12/01 03:29:50;;;;;;;3.15;2.95;;;5.00;99.90;;;;;;5078266;28;20322;-68
2021/12/01 03:32:17;;;;;;;5.38;4.10;;;5.00;99.90;;;;;;5078623;28;20634;-68
2021/12/01 03:34:44;;;;;;;3.00;2.80;;;5.00;99.90;;;;;;5077849;28;20215;-69
2021/12/01 03:37:11;;;;;;;3.45;3.15;;;5.00;99.90;;;;;;5078583;28;20601;-68
2021/12/01 03:39:37;;;;;;;4.82;4.47;;;5.00;99.90;;;;;;5078519;28;20325;-68
2021/12/01 03:42:05;;;;;;;4.32;3.92;;;4.90;99.90;;;;;;5078530;28;20200;-68
2021/12/01 03:44:32;;;;;;;7.72;7.03;;;5.00;99.90;;;;;;5078664;28;20203;-68
2021/12/01 03:46:59;;;;;;;3.22;2.90;;;5.00;99.90;;;;;;5079054;28;20227;-68
2021/12/01 03:49:25;;;;;;;4.32;3.20;;;5.00;99.90;;;;;;5078088;28;20263;-69
2021/12/01 03:51:52;;;;;;;2.92;2.72;;;5.00;99.90;;;;;;5078049;28;20191;-68
2021/12/01 03:54:18;;;;;;;3.90;3.58;;;5.00;99.90;;;;;;5076858;28;20212;-68
2021/12/01 03:56:45;;;;;;;2.88;2.63;;;5.00;99.90;;;;;;5078079;28;20215;-68
2021/12/01 03:59:13;;;;;;;7.85;3.42;;;5.00;99.90;;;;;;5079014;28;20204;-68
2021/12/01 04:01:39;;;;;;;3.65;2.75;;;5.00;99.90;;;;;;5074537;28;20337;-69
2021/12/01 04:04:05;;;;;;;3.78;3.47;;;5.00;99.90;;;;;;5075199;28;20218;-68
2021/12/01 04:06:33;;;;;;;3.53;2.80;;;5.00;99.90;;;;;;5078154;28;20224;-68
2021/12/01 04:08:59;;;;;;;6.55;3.10;;;5.00;99.90;;;;;;5078865;28;20245;-68
2021/12/01 04:11:26;;;;;;;3.53;2.88;;;5.00;99.90;;;;;;5076561;28;20203;-68
2021/12/01 04:13:56;;;;;;;2.90;2.70;;;5.10;99.90;;;;;;5078037;28;20619;-69
2021/12/01 04:16:23;;;;;;;3.80;3.00;;;5.10;99.90;;;;;;5077968;28;20659;-69
2021/12/01 04:18:49;;;;;;;4.55;2.72;;;5.10;99.90;;;;;;5077813;28;20276;-69
2021/12/01 04:21:16;;;;;;;2.65;2.15;;;5.10;99.90;;;;;;5077300;28;20210;-69
2021/12/01 04:23:44;;;;;;;3.75;2.47;;;5.10;99.90;;;;;;5077347;28;20203;-69
2021/12/01 04:26:15;;;;;;;2.40;2.30;;;5.20;99.90;;;;;;5077381;28;20694;-69
2021/12/01 04:28:41;;;;;;;4.50;2.15;;;5.30;99.90;;;;;;5077222;28;20180;-70
2021/12/01 04:31:08;;;;;;;3.15;2.10;;;5.40;99.90;;;;;;5077818;28;20199;-69
2021/12/01 04:33:34;;;;;;;2.13;1.75;;;5.50;99.90;;;;;;5078019;28;20196;-69
2021/12/01 04:36:01;;;;;;;1.40;1.30;;;5.60;99.90;;;;;;5075414;28;20209;-68
2021/12/01 04:38:27;;;;;;;2.45;1.73;;;5.60;99.90;;;;;;5075773;28;20196;-68
2021/12/01 04:40:54;;;;;;;2.10;2.00;;;5.70;99.90;;;;;;5075125;28;20204;-68
2021/12/01 04:43:20;;;;;;;5.22;2.75;;;5.60;99.90;;;;;;5075082;28;20199;-68
2021/12/01 04:45:52;;;;;;;4.40;2.03;;;5.70;99.90;;;;;;5075093;28;20207;-68
2021/12/01 04:48:18;;;;;;;4.30;1.67;;;5.60;99.90;;;;;;5075140;28;20220;-68
2021/12/01 04:50:44;;;;;;;2.05;1.95;;;5.60;99.90;;;;;;5073605;28;20231;-68
2021/12/01 04:53:11;;;;;;;1.60;1.50;;;5.60;99.90;;;;;;5074773;28;20703;-68
2021/12/01 04:55:39;;;;;;;2.15;1.98;;;5.70;99.90;;;;;;5057034;28;20632;-68
2021/12/01 04:58:05;;;;;;;1.58;1.48;;;5.60;99.90;;;;;;5075284;28;20265;-68
2021/12/01 05:00:35;;;;;;;3.72;2.00;;;5.60;99.90;;;;;;5075056;28;20249;-68
2021/12/01 05:03:02;;;;;;;4.20;1.85;;;5.60;99.90;;;;;;5073890;28;20200;-68
2021/12/01 05:05:28;;;;;;;1.88;1.73;;;5.60;99.90;;;;;;5073714;28;20207;-68
2021/12/01 05:07:55;;;;;;;2.03;1.63;;;5.60;99.90;;;;;;5074739;28;20224;-68
2021/12/01 05:10:22;;;;;;;2.28;1.70;;;5.60;99.90;;;;;;5075297;28;20211;-68
2021/12/01 05:12:49;;;;;;;7.28;1.75;;;5.70;99.90;;;;;;5074253;28;20204;-68
2021/12/01 05:15:15;;;;;;;1.95;1.75;;;5.70;99.90;;;;;;5074699;28;20572;-68
2021/12/01 05:17:42;;;;;;;1.70;1.60;;;5.70;99.90;;;;;;5073458;28;20200;-68
2021/12/01 05:20:11;;;;;;;1.60;1.50;;;5.70;99.90;;;;;;5074866;28;20564;-68
2021/12/01 05:22:39;;;;;;;3.35;1.30;;;5.70;99.90;;;;;;5074516;28;20200;-68
2021/12/01 05:25:06;;;;;;;1.35;1.25;;;5.70;99.90;;;;;;5074746;28;20204;-66
2021/12/01 05:27:32;;;;;;;1.70;1.52;;;5.70;99.90;;;;;;5073033;28;20223;-67
2021/12/01 05:29:59;;;;;;;1.50;1.40;;;5.70;99.90;;;;;;5073368;28;20204;-67
2021/12/01 05:32:26;;;;;;;1.70;1.60;;;5.70;99.90;;;;;;5073582;28;20222;-68
2021/12/01 05:34:52;;;;;;;2.55;1.08;;;5.80;99.90;;;;;;5073190;28;20721;-68
2021/12/01 05:37:19;;;;;;;1.25;1.15;;;5.80;99.90;;;;;;5072823;28;20212;-68
2021/12/01 05:39:45;;;;;;;1.40;1.30;;;5.80;99.90;;;;;;5074024;28;20215;-68
2021/12/01 05:42:13;;;;;;;2.05;1.20;;;5.80;99.90;;;;;;5074113;28;20200;-68
2021/12/01 05:44:40;;;;;;;1.42;1.33;;;5.90;99.90;;;;;;5074540;28;20611;-68
2021/12/01 05:47:07;;;;;;;1.65;1.30;;;5.80;99.90;;;;;;5074288;28;20224;-68
2021/12/01 05:49:40;;;;;;;1.70;1.50;;;5.70;99.90;;;;;;5073596;28;20223;-68
2021/12/01 05:52:07;;;;;;;1.50;1.40;;;5.70;99.90;;;;;;5074167;28;20247;-68
2021/12/01 05:54:34;;;;;;;1.30;1.20;;;5.60;99.90;;;;;;5073953;28;20227;-69
2021/12/01 05:57:01;;;;;;;1.80;1.70;;;5.60;99.90;;;;;;5073858;28;20203;-67
2021/12/01 05:59:27;;;;;;;3.97;1.60;;;5.50;99.90;;;;;;5072785;28;20211;-69
2021/12/01 06:01:54;;;;;;;1.70;1.60;;;5.50;99.90;;;;;;5073928;28;20207;-68
2021/12/01 06:04:24;;;;;;;1.55;1.45;;;5.50;99.90;;;;;;5074127;28;20200;-68
2021/12/01 06:06:51;;;;;;;2.70;1.35;;;5.40;99.90;;;;;;5074264;28;20216;-70
2021/12/01 06:09:18;;;;;;;3.13;1.70;;;5.40;99.90;;;;;;5074928;28;20573;-70
2021/12/01 06:11:47;;;;;;;4.72;1.70;;;5.40;99.90;;;;;;5075485;28;20207;-69
2021/12/01 06:14:15;;;;;;;3.17;1.50;;;5.40;99.90;;;;;;5075454;28;20778;-69
2021/12/01 06:16:43;;;;;;;1.63;1.52;;;5.40;99.90;;;;;;5075709;28;20210;-70
2021/12/01 06:19:10;;;;;;;1.85;1.50;;;5.40;99.90;;;;;;5072970;28;20195;-70
2021/12/01 06:21:36;;;;;;;1.83;1.73;;;5.40;99.90;;;;;;5074750;28;20612;-70
2021/12/01 06:24:03;;;;;;;1.92;1.83;;;5.40;99.90;;;;;;5074880;28;20546;-69
2021/12/01 06:26:29;;;;;;;2.25;1.83;;;5.40;99.90;;;;;;5074495;28;20204;-70
2021/12/01 06:28:56;;;;;;;3.75;2.15;;;5.50;99.90;;;;;;5074117;28;20257;-69
2021/12/01 06:31:23;;;;;;;2.10;1.50;;;5.50;99.90;;;;;;5073732;28;20214;-70
2021/12/01 06:33:49;;;;;;;1.70;1.60;;;5.50;99.90;;;;;;5072481;28;20204;-69
2021/12/01 06:36:16;;;;;;;3.63;1.77;;;5.50;99.90;;;;;;5072568;28;20196;-69
2021/12/01 06:38:42;;;;;;;4.95;1.90;;;5.50;99.90;;;;;;5074076;28;20727;-70
2021/12/01 06:41:09;;;;;;;1.80;1.70;;;5.50;99.90;;;;;;5072653;28;20214;-70
2021/12/01 06:43:36;;;;;;;1.88;1.25;;;5.50;99.90;;;;;;5073680;28;20211;-70
2021/12/01 06:46:02;;;;;;;2.05;1.75;;;5.50;99.90;;;;;;5073789;28;20203;-68
2021/12/01 06:48:29;;;;;;;3.40;1.77;;;5.50;99.90;;;;;;5073086;28;20224;-68
2021/12/01 06:50:55;;;;;;;2.05;1.80;;;5.50;99.90;;;;;;5073543;28;20271;-69
2021/12/01 06:53:22;;;;;;;7.25;1.80;;;5.50;99.90;;;;;;5073415;28;20234;-69
2021/12/01 06:55:48;;;;;;;1.50;1.40;;;5.60;99.90;;;;;;5071988;28;20271;-68
2021/12/01 06:58:15;;;;;;;1.63;1.50;;;5.60;99.90;;;;;;5072124;28;20580;-68
2021/12/01 07:00:41;;;;;;;2.05;1.95;;;5.60;99.90;;;;;;5073429;28;20558;-69
2021/12/01 07:03:08;;;;;;;5.88;2.00;;;5.60;99.90;;;;;;5072022;28;20215;-69
2021/12/01 07:05:35;;;;;;;4.15;1.52;;;5.60;99.90;;;;;;5073261;28;20219;-69
2021/12/01 07:08:01;;;;;;;4.22;1.50;;;5.60;99.90;;;;;;5072768;28;20251;-69
2021/12/01 07:10:28;;;;;;;1.92;1.70;;;5.60;99.90;;;;;;5072858;28;20196;-68
2021/12/01 07:12:54;;;;;;;1.52;1.42;;;5.60;99.90;;;;;;5073385;28;20238;-68
2021/12/01 07:15:21;;;;;;;1.77;1.67;;;5.60;99.90;;;;;;5072877;28;20203;-69
2021/12/01 07:17:47;;;;;;;2.15;1.50;;;5.60;99.90;;;;;;5055102;28;20204;-68
2021/12/01 07:20:14;;;;;;;1.30;1.20;;;5.60;99.90;;;;;;5071832;28;20208;-68
2021/12/01 07:22:44;;;;;;;2.15;1.75;;;5.60;99.90;;;;;;5071623;28;20204;-69
2021/12/01 07:25:13;;;;;;;1.85;1.75;;;5.60;99.90;;;;;;5072776;28;20603;-68
2021/12/01 07:27:40;;;;;;;2.60;1.85;;;5.60;99.90;;;;;;5072894;28;20215;-69
2021/12/01 07:30:07;;;;;;;3.60;1.58;;;5.60;99.90;;;;;;5075454;28;20204;-67
2021/12/01 07:32:34;;;;;;;2.38;1.15;;;5.60;99.90;;;;;;5076788;28;20200;-67
2021/12/01 07:35:00;;;;;;;1.67;1.10;;;5.60;99.90;;;;;;5076931;28;20245;-66
2021/12/01 07:37:27;;;;;;;1.83;1.67;;;5.70;99.90;;;;;;5076606;28;20204;-67
2021/12/01 07:39:53;;;;;;;4.63;1.77;;;5.60;99.90;;;;;;5075353;28;20215;-67
2021/12/01 07:42:20;;;;;;;1.70;1.60;;;5.70;99.90;;;;;;5076411;28;20663;-67
2021/12/01 07:44:46;;;;;;;3.40;1.60;;;5.70;99.90;;;;;;5076280;28;20206;-67
2021/12/01 07:47:13;;;;;;;3.63;1.40;;;5.70;99.90;;;;;;5074850;28;20219;-68
2021/12/01 07:49:40;;;;;;;1.40;1.30;;;5.70;99.90;;;;;;5076390;28;20231;-68
2021/12/01 07:52:08;;;;;;;1.20;1.10;;;5.80;99.90;;;;;;5074419;28;20197;-67
2021/12/01 07:54:36;;;;;;;3.35;1.40;;;5.80;99.90;;;;;;5074866;28;20232;-67
2021/12/01 07:57:03;;;;;;;2.20;1.40;;;5.70;99.90;;;;;;5075929;28;20208;-67
2021/12/01 07:59:29;;;;;;;1.08;1.00;;;5.80;99.90;;;;;;5075959;28;20212;-67
2021/12/01 08:01:56;;;;;;;1.60;1.50;;;5.80;99.90;;;;;;5076196;28;20567;-67
2021/12/01 08:04:22;;;;;;;1.50;1.30;;;5.80;99.90;;;;;;5076190;28;20603;-68
2021/12/01 08:06:49;;;;;;;1.33;1.23;;;5.80;99.90;;;;;;5075965;28;20211;-69
2021/12/01 08:09:15;;;;;;;1.50;1.40;;;5.80;99.90;;;;;;5075654;28;20206;-69
2021/12/01 08:11:42;;;;;;;1.48;1.20;;;5.80;99.90;;;;;;5074891;28;20205;-70
2021/12/01 08:14:08;;;;;;;1.75;1.50;;;5.80;99.90;;;;;;5075857;28;20196;-67
2021/12/01 08:16:36;;;;;;;2.13;1.27;;;5.80;99.90;;;;;;5075719;28;20223;-67
2021/12/01 08:19:03;;;;;;;1.30;1.20;;;5.80;99.90;;;;;;5076045;28;20555;-67
2021/12/01 08:21:31;;;;;;;1.33;1.23;;;5.90;99.90;;;;;;5075816;28;20208;-68
2021/12/01 08:23:58;;;;;;;1.33;1.23;;;5.90;99.90;;;;;;5075999;28;20200;-68
2021/12/01 08:26:24;;;;;;;1.10;1.00;;;5.90;99.90;;;;;;5075963;28;20204;-68
2021/12/01 08:28:51;;;;;;;1.42;0.95;;;6.00;99.90;;;;;;5074325;28;20333;-68
2021/12/01 08:31:19;;;;;;;1.85;1.40;;;6.00;99.90;;;;;;5075233;28;20196;-67
2021/12/01 08:33:46;;;;;;;1.60;1.30;;;6.00;99.90;;;;;;5075390;28;20203;-68
2021/12/01 08:36:13;;;;;;;1.33;1.23;;;6.00;99.90;;;;;;5075469;28;20196;-69
2021/12/01 08:38:41;;;;;;;1.65;1.55;;;6.00;99.90;;;;;;5075533;28;20205;-70
2021/12/01 08:41:08;;;;;;;2.35;1.33;;;6.00;99.90;;;;;;5075171;28;20199;-69
2021/12/01 08:43:35;;;;;;;1.90;1.30;;;6.00;99.90;;;;;;5075547;28;20211;-69
2021/12/01 08:46:03;;;;;;;3.38;1.30;;;6.10;99.90;;;;;;5074887;28;20656;-70
2021/12/01 08:48:30;;;;;;;1.70;1.05;;;6.10;99.90;;;;;;5074932;28;20231;-70
2021/12/01 08:51:02;;;;;;;1.35;1.20;;;6.10;99.90;;;;;;5074930;28;20639;-69
2021/12/01 08:53:30;;;;;;;1.35;1.25;;;6.10;99.90;;;;;;5073832;28;20216;-69
2021/12/01 08:55:59;;;;;;;2.35;1.20;;;6.10;99.90;;;;;;5073765;28;20196;-68
2021/12/01 08:58:26;;;;;;;1.30;1.20;;;6.10;99.90;;;;;;5074014;28;20608;-68
2021/12/01 09:00:58;;;;;;;1.85;1.20;;;6.20;99.90;;;;;;5075056;28;20678;-69
2021/12/01 09:03:25;;;;;;;1.50;1.00;;;6.20;99.90;;;;;;5075148;28;20578;-69
2021/12/01 09:05:53;;;;;;;2.05;1.00;;;6.30;99.90;;;;;;5075453;28;20203;-69
2021/12/01 09:08:22;;;;;;;0.80;0.80;;;6.30;99.90;;;;;;5074773;28;20706;-69
2021/12/01 09:10:52;;;;;;;1.10;1.00;;;6.50;99.90;;;;;;5073665;28;20664;-69
2021/12/01 09:13:21;;;;;;;1.80;1.30;;;6.50;99.90;;;;;;5074752;28;20204;-67
2021/12/01 09:15:48;;;;;;;1.45;1.10;;;6.60;99.90;;;;;;5073860;28;20199;-66
2021/12/01 09:18:14;;;;;;;0.95;0.93;;;6.70;99.90;;;;;;5074513;28;20550;-68
2021/12/01 09:20:41;;;;;;;1.35;0.90;;;6.70;99.90;;;;;;5075315;28;20203;-69
2021/12/01 09:23:07;;;;;;;0.80;0.80;;;6.80;99.90;;;;;;5074073;28;20236;-69
2021/12/01 09:25:34;;;;;;;0.75;0.75;;;6.90;99.90;;;;;;5074329;28;20200;-69
2021/12/01 09:28:01;;;;;;;1.60;0.98;;;7.00;99.90;;;;;;5072393;28;20231;-69
2021/12/01 09:30:28;;;;;;;1.75;1.27;;;7.00;99.90;;;;;;5072744;28;20195;-69
2021/12/01 09:32:54;;;;;;;0.80;0.80;;;7.10;99.90;;;;;;5072735;28;20839;-69
2021/12/01 09:35:21;;;;;;;1.00;0.90;;;7.10;99.90;;;;;;5074165;28;20204;-69
2021/12/01 09:37:47;;;;;;;1.83;1.40;;;7.10;99.90;;;;;;5074100;28;20208;-69
2021/12/01 09:40:17;;;;;;;2.38;0.85;;;7.20;99.90;;;;;;5072772;28;20211;-69
2021/12/01 09:42:48;;;;;;;3.72;0.90;;;7.20;99.90;;;;;;5073904;28;20204;-69
2021/12/01 09:45:17;;;;;;;1.33;0.80;;;7.20;99.90;;;;;;5073648;28;20208;-69
2021/12/01 09:47:44;;;;;;;1.05;1.00;;;7.20;99.90;;;;;;5073877;28;20223;-69
2021/12/01 09:50:11;;;;;;;1.77;0.90;;;7.20;99.90;;;;;;5073360;28;20699;-69
2021/12/01 09:52:38;;;;;;;0.85;0.85;;;7.20;99.90;;;;;;5073796;28;20196;-67
2021/12/01 09:55:06;;;;;;;0.85;0.85;;;7.20;99.90;;;;;;5073833;28;20234;-68
2021/12/01 09:57:33;;;;;;;0.85;0.85;;;7.20;99.90;;;;;;5073667;28;20207;-67
2021/12/01 09:59:59;;;;;;;0.95;0.90;;;7.10;99.90;;;;;;5073885;28;20207;-68
2021/12/01 10:02:26;;;;;;;0.80;0.80;;;7.10;99.90;;;;;;5074002;28;20207;-68
2021/12/01 10:04:52;;;;;;;0.80;0.80;;;7.10;99.90;;;;;;5072560;28;20211;-68
2021/12/01 10:07:30;;;;;;;4.10;0.80;;;7.10;99.90;;;;;;5073952;28;20200;-68
2021/12/01 10:10:08;;;;;;;2.17;1.10;;;7.00;99.90;;;;;;5073652;28;20191;-68
2021/12/01 10:12:49;;;;;;;1.10;0.90;;;7.10;99.90;;;;;;5073847;28;20563;-67
2021/12/01 10:15:29;;;;;;;0.70;0.70;;;7.10;99.90;;;;;;5073800;28;20200;-67
2021/12/01 10:18:16;;;;;;;1.10;1.00;;;7.10;99.90;;;;;;5073491;28;20211;-68
2021/12/01 10:20:55;;;;;;;0.80;0.80;;;7.20;99.90;;;;;;5073488;28;20211;-67
2021/12/01 10:23:22;;;;;;;3.38;1.02;;;7.20;99.90;;;;;;5073363;28;20192;-68
2021/12/01 10:25:48;;;;;;;0.80;0.73;;;7.20;99.90;;;;;;5073088;28;20207;-68
2021/12/01 10:28:36;;;;;;;0.70;0.70;;;7.20;99.90;;;;;;5073391;28;20230;-68
2021/12/01 10:31:03;;;;;;;2.45;0.98;;;7.30;99.90;;;;;;5074010;28;20282;-68
2021/12/01 10:33:30;;;;;;;1.60;0.80;;;7.30;99.90;;;;;;5071997;28;20192;-68
2021/12/01 10:36:01;;;;;;;0.80;0.80;;;7.40;99.90;;;;;;5073040;28;20200;-68
2021/12/01 10:38:32;;;;;;;1.30;0.60;;;7.40;99.90;;;;;;5073248;28;20188;-68
2021/12/01 10:41:05;;;;;;;0.80;0.80;;;7.40;99.90;;;;;;5073587;28;20268;-67
2021/12/01 10:43:50;;;;;;;0.82;0.80;;;7.40;99.90;;;;;;5073431;28;20180;-67
2021/12/01 10:46:18;;;;;;;2.03;1.30;;;7.40;99.90;;;;;;5072351;28;20192;-67
2021/12/01 10:49:00;;;;;;;1.05;0.98;;;7.40;99.90;;;;;;5073107;28;20228;-68
2021/12/01 10:51:39;;;;;;;1.15;0.95;;;7.40;99.90;;;;;;5072865;28;20224;-67
2021/12/01 10:54:18;;;;;;;0.80;0.80;;;7.30;99.90;;;;;;5073259;28;20230;-67
2021/12/01 10:56:47;;;;;;;1.17;0.98;;;7.30;99.90;;;;;;5073499;28;20204;-68
2021/12/01 10:59:16;;;;;;;1.23;0.98;;;7.30;99.90;;;;;;5073307;28;20257;-67
2021/12/01 11:01:44;;;;;;;2.08;0.70;;;7.40;99.90;;;;;;5073314;28;20204;-67
2021/12/01 11:04:10;;;;;;;1.20;1.10;;;7.30;99.90;;;;;;5074066;28;20199;-68
2021/12/01 11:06:40;;;;;;;1.95;1.25;;;7.30;99.90;;;;;;5077125;28;20205;-68
2021/12/01 11:09:07;;;;;;;1.50;1.15;;;7.30;99.90;;;;;;5076788;28;20556;-68
2021/12/01 11:11:47;;;;;;;1.10;0.90;;;7.30;99.90;;;;;;5077012;28;20196;-68
2021/12/01 11:14:16;;;;;;;1.00;0.77;;;7.30;99.90;;;;;;5077688;28;20689;-69
2021/12/01 11:16:44;;;;;;;1.13;1.00;;;7.30;99.90;;;;;;5076524;28;20686;-68
2021/12/01 11:19:11;;;;;;;1.48;1.38;;;7.40;99.90;;;;;;5076783;28;20560;-68
2021/12/01 11:21:39;;;;;;;1.95;1.20;;;7.40;99.90;;;;;;5076550;28;20210;-68
2021/12/01 11:24:13;;;;;;;2.58;0.80;;;7.50;99.90;;;;;;5076612;28;20679;-68
2021/12/01 11:26:46;;;;;;;2.15;1.25;;;7.60;99.90;;;;;;5075054;28;20204;-68
2021/12/01 11:29:13;;;;;;;0.93;0.80;;;7.60;99.90;;;;;;5076678;28;20286;-68
2021/12/01 11:31:43;;;;;;;1.05;0.95;;;7.60;99.90;;;;;;5076993;28;20204;-68
2021/12/01 11:34:15;;;;;;;0.90;0.90;;;7.50;99.90;;;;;;5076778;28;20195;-68
2021/12/01 11:36:49;;;;;;;0.90;0.90;;;7.60;99.90;;;;;;5076397;28;20200;-68
2021/12/01 11:39:26;;;;;;;3.95;1.10;;;7.60;99.90;;;;;;5075440;28;20188;-68
2021/12/01 11:41:54;;;;;;;1.20;1.10;;;7.60;99.90;;;;;;5076544;28;20207;-67
2021/12/01 11:44:25;;;;;;;1.23;0.90;;;7.60;99.90;;;;;;5076387;28;20203;-67
2021/12/01 11:46:52;;;;;;;1.08;1.08;;;7.60;99.90;;;;;;5076243;28;20269;-68
2021/12/01 11:49:22;;;;;;;1.30;1.20;;;7.60;99.90;;;;;;5075855;28;20216;-67
2021/12/01 11:52:04;;;;;;;3.47;1.13;;;7.60;99.90;;;;;;5076241;28;20180;-68
2021/12/01 11:54:31;;;;;;;1.10;1.00;;;7.60;99.90;;;;;;5075779;28;20220;-67
2021/12/01 11:57:01;;;;;;;0.80;0.80;;;7.60;99.90;;;;;;5072705;28;20231;-67
2021/12/01 11:59:38;;;;;;;1.10;1.00;;;7.60;99.90;;;;;;5058894;28;20212;-67
2021/12/01 12:02:17;;;;;;;1.13;1.02;;;7.60;99.90;;;;;;5075699;28;20553;-67
2021/12/01 12:04:48;;;;;;;1.40;0.90;;;7.60;99.90;;;;;;5076007;28;20192;-68
2021/12/01 12:07:26;;;;;;;1.17;1.08;;;7.60;99.90;;;;;;5075531;28;20314;-68
2021/12/01 12:10:08;;;;;;;0.98;0.98;;;7.70;99.90;;;;;;5075341;28;20587;-67
2021/12/01 12:13:15;;;;;;;1.92;1.23;;;7.60;99.90;;;;;;5075601;28;20203;-67
2021/12/01 12:15:50;;;;;;;1.17;1.08;;;7.60;99.90;;;;;;5073890;28;20736;-67
2021/12/01 12:18:35;;;;;;;1.13;1.02;;;7.70;99.90;;;;;;5075581;28;20194;-68
2021/12/01 12:21:16;;;;;;;1.45;1.30;;;7.70;99.90;;;;;;5075528;28;20192;-68
2021/12/01 12:23:45;;;;;;;2.28;1.50;;;7.70;99.90;;;;;;5075630;28;20207;-68
2021/12/01 12:26:12;;;;;;;1.20;1.10;;;7.60;99.90;;;;;;5074231;28;20200;-67
2021/12/01 12:28:42;;;;;;;1.65;1.27;;;7.60;99.90;;;;;;5074038;28;20220;-67
2021/12/01 12:31:18;;;;;;;1.58;1.48;;;7.70;99.90;;;;;;5074966;28;20207;-67
2021/12/01 12:34:01;;;;;;;1.17;1.08;;;7.70;99.90;;;;;;5075494;28;20223;-67
2021/12/01 12:36:41;;;;;;;1.25;1.15;;;7.70;99.90;;;;;;5075050;28;20620;-68
2021/12/01 12:39:32;;;;;;;1.25;0.90;;;7.70;99.90;;;;;;5074906;28;20200;-68
2021/12/01 12:42:00;;;;;;;1.02;0.98;;;7.70;99.90;;;;;;5075259;28;20188;-67
2021/12/01 12:44:33;;;;;;;1.10;1.00;;;7.70;99.90;;;;;;5074839;28;20203;-68
2021/12/01 12:47:13;;;;;;;1.40;1.30;;;7.70;99.90;;;;;;5074829;28;20553;-68
2021/12/01 12:49:50;;;;;;;0.80;0.80;;;7.60;99.90;;;;;;5074676;28;20235;-67
2021/12/01 12:52:25;;;;;;;1.00;1.00;;;7.70;99.90;;;;;;5075015;28;20234;-68
2021/12/01 12:54:52;;;;;;;1.42;1.20;;;7.70;99.90;;;;;;5074725;28;20216;-68
2021/12/01 12:57:18;;;;;;;1.35;1.00;;;7.80;99.90;;;;;;5074924;28;20199;-67
2021/12/01 12:59:46;;;;;;;1.20;1.20;;;7.80;99.90;;;;;;5074189;28;20265;-67
2021/12/01 13:02:15;;;;;;;1.50;1.40;;;7.80;99.90;;;;;;5073303;28;20204;-68
2021/12/01 13:07:29;;;;;;;1.20;1.10;;;7.80;99.90;;;;;;5074934;28;20203;-67
2021/12/01 13:10:22;;;;;;;1.10;1.10;;;7.80;99.90;;;;;;5074427;28;20224;-67
2021/12/01 13:13:01;;;;;;;0.82;0.82;;;7.70;99.90;;;;;;5074243;28;20185;-67
2021/12/01 13:15:27;;;;;;;1.02;1.00;;;7.70;99.90;;;;;;5074081;28;20180;-67